map of LEN home
LEN - Airport
Location
City:  León, Castille and León, Spain
Name:Aeropuero de Bajio
ICAO:LELN
IATA:LEN

Details
Type:Airport (Aerodrome, Airfield)
Use:Military
Latitude:42°35'20"N (42.589000)
Longitude:5°39'20"W (-5.655555)
Datum:WGS 1984
Elevation:3006 ft (916 m)
Variation:1.31°W (WMM2015 magnetic declination)
0.13° annual change
Runways:2
Longest:6890 × 148 ft (2100 × 45 m), paved

Time
Time Zone:UTC+1 (DST+2)
Local Time:

Weather
METAR:LELN 160730Z 22005KT 190V250 9999 FEW005 SCT020 07/07 Q1014

Related Locations
Nearby:
Farthest:KBZ: 12400 mi / 19956 km
Kaikoura, CAN, NZ

Find:

   beyond  
but within

Other Information
Maps:
NOTAMs:
Links:
Sources:

  
  • flag of Spain
  • flag of Castille and León
  

Sectional Chart

Flight Planning
at skyvector.com

Satellite Image

Google Maps Satellite view

 

Copyright © 2004-2018 Karl L. Swartz. All rights reserved.
The Great Circle Mapper name and logo are trademarks of the Great Circle Mapper.
All other trademarks mentioned herein belong to their respective owners.
Please see credits for attibutions and further copyright information.

  Follow gcmap on Facebook Follow gcmap on Twitter Follow gcmap on Google+ GCmap on LinkedIn

hCard Microformat

Geo Microformat